sensor_id;sensor_type;location;lat;lon;timestamp;pressure;altitude;pressure_sealevel;temperature;humidity
60705;BME280;46545;38.014;-7.874;2022-09-09T00:02:17;65176.66;;;-145.13;100.00
60705;BME280;46545;38.014;-7.874;2022-09-09T00:08:19;65176.66;;;-145.13;100.00
60705;BME280;46545;38.014;-7.874;2022-09-09T00:12:32;65176.66;;;-145.13;100.00
60705;BME280;46545;38.014;-7.874;2022-09-09T00:14:37;65176.66;;;-145.13;100.00
60705;BME280;46545;38.014;-7.874;2022-09-09T00:16:41;65176.66;;;-145.13;100.00
60705;BME280;46545;38.014;-7.874;2022-09-09T00:21:15;65176.66;;;-145.13;100.00
60705;BME280;46545;38.014;-7.874;2022-09-09T00:23:21;65176.66;;;-145.13;100.00
60705;BME280;46545;38.014;-7.874;2022-09-09T00:25:42;65176.66;;;-145.13;100.00
60705;BME280;46545;38.014;-7.874;2022-09-09T00:27:47;65176.66;;;-145.13;100.00
60705;BME280;46545;38.014;-7.874;2022-09-09T00:29:53;65176.66;;;-145.13;100.00
60705;BME280;46545;38.014;-7.874;2022-09-09T00:31:56;65176.66;;;-145.13;100.00
60705;BME280;46545;38.014;-7.874;2022-09-09T00:34:13;65176.66;;;-145.13;100.00
60705;BME280;46545;38.014;-7.874;2022-09-09T00:36:14;65176.66;;;-145.13;100.00
60705;BME280;46545;38.014;-7.874;2022-09-09T00:38:18;65176.66;;;-145.13;100.00
60705;BME280;46545;38.014;-7.874;2022-09-09T00:40:24;65176.66;;;-145.13;100.00
60705;BME280;46545;38.014;-7.874;2022-09-09T00:42:30;65176.66;;;-145.13;100.00
60705;BME280;46545;38.014;-7.874;2022-09-09T00:44:37;65176.66;;;-145.13;100.00
60705;BME280;46545;38.014;-7.874;2022-09-09T00:46:43;65176.66;;;-145.13;100.00
60705;BME280;46545;38.014;-7.874;2022-09-09T00:49:05;65176.66;;;-145.13;100.00
60705;BME280;46545;38.014;-7.874;2022-09-09T00:51:15;65176.66;;;-145.13;100.00
60705;BME280;46545;38.014;-7.874;2022-09-09T00:57:33;65176.66;;;-145.13;100.00
60705;BME280;46545;38.014;-7.874;2022-09-09T01:01:36;65176.66;;;-145.13;100.00
60705;BME280;46545;38.014;-7.874;2022-09-09T01:03:37;65176.66;;;-145.13;100.00
60705;BME280;46545;38.014;-7.874;2022-09-09T01:07:58;65176.66;;;-145.13;100.00
60705;BME280;46545;38.014;-7.874;2022-09-09T01:10:03;65176.66;;;-145.13;100.00
60705;BME280;46545;38.014;-7.874;2022-09-09T01:16:36;65176.66;;;-145.13;100.00
60705;BME280;46545;38.014;-7.874;2022-09-09T01:18:41;65176.66;;;-145.13;100.00
60705;BME280;46545;38.014;-7.874;2022-09-09T01:27:29;65176.66;;;-145.13;100.00
60705;BME280;46545;38.014;-7.874;2022-09-09T01:29:30;65176.66;;;-145.13;100.00
60705;BME280;46545;38.014;-7.874;2022-09-09T01:31:32;65176.66;;;-145.13;100.00
60705;BME280;46545;38.014;-7.874;2022-09-09T01:33:35;65176.66;;;-145.13;100.00
60705;BME280;46545;38.014;-7.874;2022-09-09T01:35:46;65176.66;;;-145.13;100.00
60705;BME280;46545;38.014;-7.874;2022-09-09T01:37:52;65176.66;;;-145.13;100.00
60705;BME280;46545;38.014;-7.874;2022-09-09T01:39:52;65176.66;;;-145.13;100.00
60705;BME280;46545;38.014;-7.874;2022-09-09T01:41:53;65176.66;;;-145.13;100.00
60705;BME280;46545;38.014;-7.874;2022-09-09T01:43:55;65176.66;;;-145.13;100.00
60705;BME280;46545;38.014;-7.874;2022-09-09T01:45:59;65176.66;;;-145.13;100.00
60705;BME280;46545;38.014;-7.874;2022-09-09T01:48:01;65176.66;;;-145.13;100.00
60705;BME280;46545;38.014;-7.874;2022-09-09T01:50:18;65176.66;;;-145.13;100.00
60705;BME280;46545;38.014;-7.874;2022-09-09T01:52:18;65176.66;;;-145.13;100.00
60705;BME280;46545;38.014;-7.874;2022-09-09T01:54:20;65176.66;;;-145.13;100.00
60705;BME280;46545;38.014;-7.874;2022-09-09T01:58:32;65176.66;;;-145.13;100.00
60705;BME280;46545;38.014;-7.874;2022-09-09T02:00:34;65176.66;;;-145.13;100.00
60705;BME280;46545;38.014;-7.874;2022-09-09T02:02:45;65176.66;;;-145.13;100.00
60705;BME280;46545;38.014;-7.874;2022-09-09T02:07:29;65176.66;;;-145.13;100.00
60705;BME280;46545;38.014;-7.874;2022-09-09T02:09:33;65176.66;;;-145.13;100.00
60705;BME280;46545;38.014;-7.874;2022-09-09T02:11:35;65176.66;;;-145.13;100.00
60705;BME280;46545;38.014;-7.874;2022-09-09T02:13:52;65176.66;;;-145.13;100.00
60705;BME280;46545;38.014;-7.874;2022-09-09T02:15:56;65176.66;;;-145.13;100.00
60705;BME280;46545;38.014;-7.874;2022-09-09T02:17:58;65176.66;;;-145.13;100.00
60705;BME280;46545;38.014;-7.874;2022-09-09T02:20:06;65176.66;;;-145.13;100.00
60705;BME280;46545;38.014;-7.874;2022-09-09T02:22:17;65176.66;;;-145.13;100.00
60705;BME280;46545;38.014;-7.874;2022-09-09T02:24:19;65176.66;;;-145.13;100.00
60705;BME280;46545;38.014;-7.874;2022-09-09T02:26:27;65176.66;;;-145.13;100.00
60705;BME280;46545;38.014;-7.874;2022-09-09T02:28:34;65176.66;;;-145.13;100.00
60705;BME280;46545;38.014;-7.874;2022-09-09T02:30:35;65176.66;;;-145.13;100.00
60705;BME280;46545;38.014;-7.874;2022-09-09T02:32:37;65176.66;;;-145.13;100.00
60705;BME280;46545;38.014;-7.874;2022-09-09T02:34:44;65176.66;;;-145.13;100.00
60705;BME280;46545;38.014;-7.874;2022-09-09T02:36:45;65176.66;;;-145.13;100.00
60705;BME280;46545;38.014;-7.874;2022-09-09T02:38:47;65176.66;;;-145.13;100.00
60705;BME280;46545;38.014;-7.874;2022-09-09T02:40:51;65176.66;;;-145.13;100.00
60705;BME280;46545;38.014;-7.874;2022-09-09T02:42:53;65176.66;;;-145.13;100.00
60705;BME280;46545;38.014;-7.874;2022-09-09T02:44:55;65176.66;;;-145.13;100.00
60705;BME280;46545;38.014;-7.874;2022-09-09T02:53:42;65176.66;;;-145.13;100.00
60705;BME280;46545;38.014;-7.874;2022-09-09T02:55:48;65176.66;;;-145.13;100.00
60705;BME280;46545;38.014;-7.874;2022-09-09T02:57:54;65176.66;;;-145.13;100.00
60705;BME280;46545;38.014;-7.874;2022-09-09T02:59:56;65176.66;;;-145.13;100.00
60705;BME280;46545;38.014;-7.874;2022-09-09T03:01:58;65176.66;;;-145.13;100.00
60705;BME280;46545;38.014;-7.874;2022-09-09T03:03:58;65176.66;;;-145.13;100.00
60705;BME280;46545;38.014;-7.874;2022-09-09T03:05:59;65176.66;;;-145.13;100.00
60705;BME280;46545;38.014;-7.874;2022-09-09T03:08:01;65176.66;;;-145.13;100.00
60705;BME280;46545;38.014;-7.874;2022-09-09T03:10:02;65176.66;;;-145.13;100.00
60705;BME280;46545;38.014;-7.874;2022-09-09T03:12:03;65176.66;;;-145.13;100.00
60705;BME280;46545;38.014;-7.874;2022-09-09T03:14:07;65176.66;;;-145.13;100.00
60705;BME280;46545;38.014;-7.874;2022-09-09T03:16:10;65176.66;;;-145.13;100.00
60705;BME280;46545;38.014;-7.874;2022-09-09T03:18:16;65176.66;;;-145.13;100.00
60705;BME280;46545;38.014;-7.874;2022-09-09T03:20:19;65176.66;;;-145.13;100.00
60705;BME280;46545;38.014;-7.874;2022-09-09T03:22:20;65176.66;;;-145.13;100.00
60705;BME280;46545;38.014;-7.874;2022-09-09T03:24:21;65176.66;;;-145.13;100.00
60705;BME280;46545;38.014;-7.874;2022-09-09T03:26:23;65176.66;;;-145.13;100.00
60705;BME280;46545;38.014;-7.874;2022-09-09T03:28:23;65176.66;;;-145.13;100.00
60705;BME280;46545;38.014;-7.874;2022-09-09T03:30:30;65176.66;;;-145.13;100.00
60705;BME280;46545;38.014;-7.874;2022-09-09T03:32:31;65176.66;;;-145.13;100.00
60705;BME280;46545;38.014;-7.874;2022-09-09T03:34:32;65176.66;;;-145.13;100.00
60705;BME280;46545;38.014;-7.874;2022-09-09T03:36:33;65176.66;;;-145.13;100.00
60705;BME280;46545;38.014;-7.874;2022-09-09T03:38:34;65176.66;;;-145.13;100.00
60705;BME280;46545;38.014;-7.874;2022-09-09T03:40:34;65176.66;;;-145.13;100.00
60705;BME280;46545;38.014;-7.874;2022-09-09T03:42:36;65176.66;;;-145.13;100.00
60705;BME280;46545;38.014;-7.874;2022-09-09T03:44:37;65176.66;;;-145.13;100.00
60705;BME280;46545;38.014;-7.874;2022-09-09T03:46:37;65176.66;;;-145.13;100.00
60705;BME280;46545;38.014;-7.874;2022-09-09T03:48:38;65176.66;;;-145.13;100.00
60705;BME280;46545;38.014;-7.874;2022-09-09T03:50:42;65176.66;;;-145.13;100.00
60705;BME280;46545;38.014;-7.874;2022-09-09T03:52:44;65176.66;;;-145.13;100.00
60705;BME280;46545;38.014;-7.874;2022-09-09T03:54:50;65176.66;;;-145.13;100.00
60705;BME280;46545;38.014;-7.874;2022-09-09T03:56:51;65176.66;;;-145.13;100.00
60705;BME280;46545;38.014;-7.874;2022-09-09T03:58:52;65176.66;;;-145.13;100.00
60705;BME280;46545;38.014;-7.874;2022-09-09T04:00:59;65176.66;;;-145.13;100.00
60705;BME280;46545;38.014;-7.874;2022-09-09T04:03:01;65176.66;;;-145.13;100.00
60705;BME280;46545;38.014;-7.874;2022-09-09T04:05:02;65176.66;;;-145.13;100.00
60705;BME280;46545;38.014;-7.874;2022-09-09T04:07:03;65176.66;;;-145.13;100.00
60705;BME280;46545;38.014;-7.874;2022-09-09T04:09:06;65176.66;;;-145.13;100.00
60705;BME280;46545;38.014;-7.874;2022-09-09T04:11:07;65176.66;;;-145.13;100.00
60705;BME280;46545;38.014;-7.874;2022-09-09T04:13:09;65176.66;;;-145.13;100.00
60705;BME280;46545;38.014;-7.874;2022-09-09T04:15:10;65176.66;;;-145.13;100.00
60705;BME280;46545;38.014;-7.874;2022-09-09T04:17:12;65176.66;;;-145.13;100.00
60705;BME280;46545;38.014;-7.874;2022-09-09T04:19:13;65176.66;;;-145.13;100.00
60705;BME280;46545;38.014;-7.874;2022-09-09T04:21:16;65176.66;;;-145.13;100.00
60705;BME280;46545;38.014;-7.874;2022-09-09T04:23:17;65176.66;;;-145.13;100.00
60705;BME280;46545;38.014;-7.874;2022-09-09T04:25:20;65176.66;;;-145.13;100.00
60705;BME280;46545;38.014;-7.874;2022-09-09T04:27:21;65176.66;;;-145.13;100.00
60705;BME280;46545;38.014;-7.874;2022-09-09T04:29:22;65176.66;;;-145.13;100.00
60705;BME280;46545;38.014;-7.874;2022-09-09T04:31:22;65176.66;;;-145.13;100.00
60705;BME280;46545;38.014;-7.874;2022-09-09T04:33:25;65176.66;;;-145.13;100.00
60705;BME280;46545;38.014;-7.874;2022-09-09T04:35:27;65176.66;;;-145.13;100.00
60705;BME280;46545;38.014;-7.874;2022-09-09T04:37:28;65176.66;;;-145.13;100.00
60705;BME280;46545;38.014;-7.874;2022-09-09T04:39:29;65176.66;;;-145.13;100.00
60705;BME280;46545;38.014;-7.874;2022-09-09T04:41:30;65176.66;;;-145.13;100.00
60705;BME280;46545;38.014;-7.874;2022-09-09T04:43:32;65176.66;;;-145.13;100.00
60705;BME280;46545;38.014;-7.874;2022-09-09T04:45:34;65176.66;;;-145.13;100.00
60705;BME280;46545;38.014;-7.874;2022-09-09T04:47:35;65176.66;;;-145.13;100.00
60705;BME280;46545;38.014;-7.874;2022-09-09T04:49:36;65176.66;;;-145.13;100.00
60705;BME280;46545;38.014;-7.874;2022-09-09T04:51:36;65176.66;;;-145.13;100.00
60705;BME280;46545;38.014;-7.874;2022-09-09T04:53:37;65176.66;;;-145.13;100.00
60705;BME280;46545;38.014;-7.874;2022-09-09T04:55:38;65176.66;;;-145.13;100.00
60705;BME280;46545;38.014;-7.874;2022-09-09T04:57:40;65176.66;;;-145.13;100.00
60705;BME280;46545;38.014;-7.874;2022-09-09T04:59:40;65176.66;;;-145.13;100.00
60705;BME280;46545;38.014;-7.874;2022-09-09T05:01:41;65176.66;;;-145.13;100.00
60705;BME280;46545;38.014;-7.874;2022-09-09T05:03:41;65176.66;;;-145.13;100.00
60705;BME280;46545;38.014;-7.874;2022-09-09T05:05:45;65176.66;;;-145.13;100.00
60705;BME280;46545;38.014;-7.874;2022-09-09T05:07:46;65176.66;;;-145.13;100.00
60705;BME280;46545;38.014;-7.874;2022-09-09T05:09:48;65176.66;;;-145.13;100.00
60705;BME280;46545;38.014;-7.874;2022-09-09T05:11:50;65176.66;;;-145.13;100.00
60705;BME280;46545;38.014;-7.874;2022-09-09T05:13:58;65176.66;;;-145.13;100.00
60705;BME280;46545;38.014;-7.874;2022-09-09T05:15:59;65176.66;;;-145.13;100.00
60705;BME280;46545;38.014;-7.874;2022-09-09T05:18:00;65176.66;;;-145.13;100.00
60705;BME280;46545;38.014;-7.874;2022-09-09T05:20:03;65176.66;;;-145.13;100.00
60705;BME280;46545;38.014;-7.874;2022-09-09T05:22:05;65176.66;;;-145.13;100.00
60705;BME280;46545;38.014;-7.874;2022-09-09T05:24:14;65176.66;;;-145.13;100.00
60705;BME280;46545;38.014;-7.874;2022-09-09T05:26:16;65176.66;;;-145.13;100.00
60705;BME280;46545;38.014;-7.874;2022-09-09T05:28:19;65176.66;;;-145.13;100.00
60705;BME280;46545;38.014;-7.874;2022-09-09T05:30:21;65176.66;;;-145.13;100.00
60705;BME280;46545;38.014;-7.874;2022-09-09T05:32:24;65176.66;;;-145.13;100.00
60705;BME280;46545;38.014;-7.874;2022-09-09T05:34:26;65176.66;;;-145.13;100.00
60705;BME280;46545;38.014;-7.874;2022-09-09T05:36:27;65176.66;;;-145.13;100.00
60705;BME280;46545;38.014;-7.874;2022-09-09T05:38:30;65176.66;;;-145.13;100.00
60705;BME280;46545;38.014;-7.874;2022-09-09T05:40:31;65176.66;;;-145.13;100.00
60705;BME280;46545;38.014;-7.874;2022-09-09T05:42:31;65176.66;;;-145.13;100.00
60705;BME280;46545;38.014;-7.874;2022-09-09T05:44:33;65176.66;;;-145.13;100.00
60705;BME280;46545;38.014;-7.874;2022-09-09T05:46:34;65176.66;;;-145.13;100.00
60705;BME280;46545;38.014;-7.874;2022-09-09T05:48:36;65176.66;;;-145.13;100.00
60705;BME280;46545;38.014;-7.874;2022-09-09T05:50:37;65176.66;;;-145.13;100.00
60705;BME280;46545;38.014;-7.874;2022-09-09T05:52:38;65176.66;;;-145.13;100.00
60705;BME280;46545;38.014;-7.874;2022-09-09T05:54:39;65176.66;;;-145.13;100.00
60705;BME280;46545;38.014;-7.874;2022-09-09T05:56:42;65176.66;;;-145.13;100.00
60705;BME280;46545;38.014;-7.874;2022-09-09T05:58:43;65176.66;;;-145.13;100.00
60705;BME280;46545;38.014;-7.874;2022-09-09T06:00:45;65176.66;;;-145.13;100.00
60705;BME280;46545;38.014;-7.874;2022-09-09T06:02:50;65176.66;;;-145.13;100.00
60705;BME280;46545;38.014;-7.874;2022-09-09T06:04:51;65176.66;;;-145.13;100.00
60705;BME280;46545;38.014;-7.874;2022-09-09T06:06:52;65176.66;;;-145.13;100.00
60705;BME280;46545;38.014;-7.874;2022-09-09T06:08:55;65176.66;;;-145.13;100.00
60705;BME280;46545;38.014;-7.874;2022-09-09T06:11:06;65176.66;;;-145.13;100.00
60705;BME280;46545;38.014;-7.874;2022-09-09T06:13:07;65176.66;;;-145.13;100.00
60705;BME280;46545;38.014;-7.874;2022-09-09T06:15:09;65176.66;;;-145.13;100.00
60705;BME280;46545;38.014;-7.874;2022-09-09T06:17:10;65176.66;;;-145.13;100.00
60705;BME280;46545;38.014;-7.874;2022-09-09T06:19:11;65176.66;;;-145.13;100.00
60705;BME280;46545;38.014;-7.874;2022-09-09T06:21:26;65176.66;;;-145.13;100.00
60705;BME280;46545;38.014;-7.874;2022-09-09T06:23:27;65176.66;;;-145.13;100.00
60705;BME280;46545;38.014;-7.874;2022-09-09T06:25:28;65176.66;;;-145.13;100.00
60705;BME280;46545;38.014;-7.874;2022-09-09T06:27:29;65176.66;;;-145.13;100.00
60705;BME280;46545;38.014;-7.874;2022-09-09T06:29:30;65176.66;;;-145.13;100.00
60705;BME280;46545;38.014;-7.874;2022-09-09T06:31:32;65176.66;;;-145.13;100.00
60705;BME280;46545;38.014;-7.874;2022-09-09T06:33:40;65176.66;;;-145.13;100.00
60705;BME280;46545;38.014;-7.874;2022-09-09T06:35:51;65176.66;;;-145.13;100.00
60705;BME280;46545;38.014;-7.874;2022-09-09T06:37:54;65176.66;;;-145.13;100.00
60705;BME280;46545;38.014;-7.874;2022-09-09T06:39:55;65176.66;;;-145.13;100.00
60705;BME280;46545;38.014;-7.874;2022-09-09T06:41:55;65176.66;;;-145.13;100.00
60705;BME280;46545;38.014;-7.874;2022-09-09T06:44:33;65176.66;;;-145.13;100.00
60705;BME280;46545;38.014;-7.874;2022-09-09T06:46:34;65176.66;;;-145.13;100.00
60705;BME280;46545;38.014;-7.874;2022-09-09T06:48:36;65176.66;;;-145.13;100.00
60705;BME280;46545;38.014;-7.874;2022-09-09T06:50:39;65176.66;;;-145.13;100.00
60705;BME280;46545;38.014;-7.874;2022-09-09T06:52:39;65176.66;;;-145.13;100.00
60705;BME280;46545;38.014;-7.874;2022-09-09T06:54:42;65176.66;;;-145.13;100.00
60705;BME280;46545;38.014;-7.874;2022-09-09T06:56:42;65176.66;;;-145.13;100.00
60705;BME280;46545;38.014;-7.874;2022-09-09T06:58:55;65176.66;;;-145.13;100.00
60705;BME280;46545;38.014;-7.874;2022-09-09T07:01:03;65176.66;;;-145.13;100.00
60705;BME280;46545;38.014;-7.874;2022-09-09T07:03:04;65176.66;;;-145.13;100.00
60705;BME280;46545;38.014;-7.874;2022-09-09T07:05:06;65176.66;;;-145.13;100.00
60705;BME280;46545;38.014;-7.874;2022-09-09T07:07:08;65176.66;;;-145.13;100.00
60705;BME280;46545;38.014;-7.874;2022-09-09T07:09:12;65176.66;;;-145.13;100.00
60705;BME280;46545;38.014;-7.874;2022-09-09T07:11:14;65176.66;;;-145.13;100.00
60705;BME280;46545;38.014;-7.874;2022-09-09T07:13:16;65176.66;;;-145.13;100.00
60705;BME280;46545;38.014;-7.874;2022-09-09T07:15:16;65176.66;;;-145.13;100.00
60705;BME280;46545;38.014;-7.874;2022-09-09T07:17:19;65176.66;;;-145.13;100.00
60705;BME280;46545;38.014;-7.874;2022-09-09T07:19:20;65176.66;;;-145.13;100.00
60705;BME280;46545;38.014;-7.874;2022-09-09T07:21:25;65176.66;;;-145.13;100.00
60705;BME280;46545;38.014;-7.874;2022-09-09T07:23:27;65176.66;;;-145.13;100.00
60705;BME280;46545;38.014;-7.874;2022-09-09T07:25:28;65176.66;;;-145.13;100.00
60705;BME280;46545;38.014;-7.874;2022-09-09T07:27:31;65176.66;;;-145.13;100.00
60705;BME280;46545;38.014;-7.874;2022-09-09T07:29:32;65176.66;;;-145.13;100.00
60705;BME280;46545;38.014;-7.874;2022-09-09T07:31:34;65176.66;;;-145.13;100.00
60705;BME280;46545;38.014;-7.874;2022-09-09T07:33:38;65176.66;;;-145.13;100.00
60705;BME280;46545;38.014;-7.874;2022-09-09T07:35:38;65176.66;;;-145.13;100.00
60705;BME280;46545;38.014;-7.874;2022-09-09T07:37:39;65176.66;;;-145.13;100.00
60705;BME280;46545;38.014;-7.874;2022-09-09T07:39:41;65176.66;;;-145.13;100.00
60705;BME280;46545;38.014;-7.874;2022-09-09T07:41:46;65176.66;;;-145.13;100.00
60705;BME280;46545;38.014;-7.874;2022-09-09T07:43:48;65176.66;;;-145.13;100.00
60705;BME280;46545;38.014;-7.874;2022-09-09T07:45:56;65176.66;;;-145.13;100.00
60705;BME280;46545;38.014;-7.874;2022-09-09T07:47:57;65176.66;;;-145.13;100.00
60705;BME280;46545;38.014;-7.874;2022-09-09T07:49:57;65176.66;;;-145.13;100.00
60705;BME280;46545;38.014;-7.874;2022-09-09T07:52:04;65176.66;;;-145.13;100.00
60705;BME280;46545;38.014;-7.874;2022-09-09T07:54:06;65176.66;;;-145.13;100.00
60705;BME280;46545;38.014;-7.874;2022-09-09T07:56:09;65176.66;;;-145.13;100.00
60705;BME280;46545;38.014;-7.874;2022-09-09T07:58:10;65176.66;;;-145.13;100.00
60705;BME280;46545;38.014;-7.874;2022-09-09T08:00:11;65176.66;;;-145.13;100.00
60705;BME280;46545;38.014;-7.874;2022-09-09T08:02:18;65176.66;;;-145.13;100.00
60705;BME280;46545;38.014;-7.874;2022-09-09T08:04:19;65176.66;;;-145.13;100.00
60705;BME280;46545;38.014;-7.874;2022-09-09T08:06:21;65176.66;;;-145.13;100.00
60705;BME280;46545;38.014;-7.874;2022-09-09T08:08:24;65176.66;;;-145.13;100.00
60705;BME280;46545;38.014;-7.874;2022-09-09T08:10:24;65176.66;;;-145.13;100.00
60705;BME280;46545;38.014;-7.874;2022-09-09T08:12:27;65176.66;;;-145.13;100.00
60705;BME280;46545;38.014;-7.874;2022-09-09T08:14:28;65176.66;;;-145.13;100.00
60705;BME280;46545;38.014;-7.874;2022-09-09T08:16:31;65176.66;;;-145.13;100.00
60705;BME280;46545;38.014;-7.874;2022-09-09T08:18:33;65176.66;;;-145.13;100.00
60705;BME280;46545;38.014;-7.874;2022-09-09T08:20:35;65176.66;;;-145.13;100.00
60705;BME280;46545;38.014;-7.874;2022-09-09T08:22:35;99152.03;;;23.01;77.40
60705;BME280;46545;38.014;-7.874;2022-09-09T08:24:38;99157.56;;;23.09;76.87
60705;BME280;46545;38.014;-7.874;2022-09-09T08:26:40;65176.66;;;-145.13;100.00
60705;BME280;46545;38.014;-7.874;2022-09-09T08:28:43;65176.66;;;-145.13;100.00
60705;BME280;46545;38.014;-7.874;2022-09-09T08:30:43;65176.66;;;-145.13;100.00
60705;BME280;46545;38.014;-7.874;2022-09-09T08:32:45;65176.66;;;-145.13;100.00
60705;BME280;46545;38.014;-7.874;2022-09-09T08:34:46;65176.66;;;-145.13;100.00
60705;BME280;46545;38.014;-7.874;2022-09-09T08:36:53;65176.66;;;-145.13;100.00
60705;BME280;46545;38.014;-7.874;2022-09-09T08:38:59;65176.66;;;-145.13;100.00
60705;BME280;46545;38.014;-7.874;2022-09-09T08:41:06;99150.91;;;25.11;67.74
60705;BME280;46545;38.014;-7.874;2022-09-09T08:43:11;99155.75;;;25.35;66.08
60705;BME280;46545;38.014;-7.874;2022-09-09T08:45:18;99156.06;;;25.55;64.89
60705;BME280;46545;38.014;-7.874;2022-09-09T08:51:32;99157.25;;;25.78;63.02
60705;BME280;46545;38.014;-7.874;2022-09-09T08:54:07;99155.09;;;25.84;62.89
60705;BME280;46545;38.014;-7.874;2022-09-09T08:56:02;99164.09;;;25.85;62.51
60705;BME280;46545;38.014;-7.874;2022-09-09T08:58:34;99159.50;;;25.64;62.24
60705;BME280;46545;38.014;-7.874;2022-09-09T09:00:44;99165.09;;;25.68;62.71
60705;BME280;46545;38.014;-7.874;2022-09-09T09:05:04;99160.22;;;25.86;61.76
60705;BME280;46545;38.014;-7.874;2022-09-09T09:09:24;99174.91;;;25.56;61.38
60705;BME280;46545;38.014;-7.874;2022-09-09T09:11:38;99171.28;;;25.31;62.60
60705;BME280;46545;38.014;-7.874;2022-09-09T09:13:59;99181.22;;;25.15;62.21
60705;BME280;46545;38.014;-7.874;2022-09-09T09:18:23;99179.16;;;25.33;61.94
60705;BME280;46545;38.014;-7.874;2022-09-09T09:20:28;99183.81;;;25.53;61.65
60705;BME280;46545;38.014;-7.874;2022-09-09T09:24:49;99177.00;;;26.17;59.28
60705;BME280;46545;38.014;-7.874;2022-09-09T09:26:53;65176.66;;;-145.13;100.00
60705;BME280;46545;38.014;-7.874;2022-09-09T09:28:55;65176.66;;;-145.13;100.00
60705;BME280;46545;38.014;-7.874;2022-09-09T09:31:03;99198.41;;;26.86;57.10
60705;BME280;46545;38.014;-7.874;2022-09-09T09:35:16;99201.38;;;26.44;58.40
60705;BME280;46545;38.014;-7.874;2022-09-09T09:37:23;99191.75;;;26.37;58.58
60705;BME280;46545;38.014;-7.874;2022-09-09T09:39:30;99194.94;;;26.52;58.42
60705;BME280;46545;38.014;-7.874;2022-09-09T09:41:35;99196.34;;;26.58;57.83
60705;BME280;46545;38.014;-7.874;2022-09-09T09:43:39;99209.75;;;26.72;57.31
60705;BME280;46545;38.014;-7.874;2022-09-09T09:45:44;99207.56;;;26.90;57.02
60705;BME280;46545;38.014;-7.874;2022-09-09T09:47:46;99215.56;;;26.83;56.70
60705;BME280;46545;38.014;-7.874;2022-09-09T09:49:51;99210.38;;;26.93;56.57
60705;BME280;46545;38.014;-7.874;2022-09-09T09:51:52;99213.34;;;27.25;56.34
60705;BME280;46545;38.014;-7.874;2022-09-09T09:53:53;65176.66;;;-145.13;100.00
60705;BME280;46545;38.014;-7.874;2022-09-09T09:55:58;65176.66;;;-145.13;100.00
60705;BME280;46545;38.014;-7.874;2022-09-09T09:58:05;99204.84;;;28.34;52.74
60705;BME280;46545;38.014;-7.874;2022-09-09T10:02:20;99217.81;;;28.50;51.96
60705;BME280;46545;38.014;-7.874;2022-09-09T10:04:27;99226.75;;;28.78;51.34
60705;BME280;46545;38.014;-7.874;2022-09-09T10:06:33;99221.16;;;29.10;49.95
60705;BME280;46545;38.014;-7.874;2022-09-09T10:08:43;99221.22;;;28.94;50.25
60705;BME280;46545;38.014;-7.874;2022-09-09T10:13:01;99220.09;;;28.48;51.70
60705;BME280;46545;38.014;-7.874;2022-09-09T10:15:15;99206.25;;;28.28;52.06
60705;BME280;46545;38.014;-7.874;2022-09-09T10:19:29;99204.94;;;27.78;54.22
60705;BME280;46545;38.014;-7.874;2022-09-09T10:23:51;99200.16;;;27.75;54.00
60705;BME280;46545;38.014;-7.874;2022-09-09T10:28:10;99207.25;;;27.76;54.05
60705;BME280;46545;38.014;-7.874;2022-09-09T10:30:27;99199.88;;;27.64;54.20
60705;BME280;46545;38.014;-7.874;2022-09-09T10:34:56;65176.66;;;-145.13;100.00
60705;BME280;46545;38.014;-7.874;2022-09-09T10:37:00;65176.66;;;-145.13;100.00
60705;BME280;46545;38.014;-7.874;2022-09-09T10:39:03;99195.56;;;27.51;55.60
60705;BME280;46545;38.014;-7.874;2022-09-09T10:43:13;99195.88;;;27.77;54.21
60705;BME280;46545;38.014;-7.874;2022-09-09T10:52:14;99179.19;;;27.70;54.55
60705;BME280;46545;38.014;-7.874;2022-09-09T10:56:19;99183.34;;;27.80;54.35
60705;BME280;46545;38.014;-7.874;2022-09-09T10:58:25;99168.94;;;27.99;54.09
60705;BME280;46545;38.014;-7.874;2022-09-09T11:00:39;99181.13;;;28.14;52.52
60705;BME280;46545;38.014;-7.874;2022-09-09T11:02:40;99173.38;;;27.88;53.32
60705;BME280;46545;38.014;-7.874;2022-09-09T11:04:48;65176.66;;;-145.13;100.00
60705;BME280;46545;38.014;-7.874;2022-09-09T11:06:54;99173.75;;;27.58;54.81
60705;BME280;46545;38.014;-7.874;2022-09-09T11:08:55;99175.53;;;27.66;54.61
60705;BME280;46545;38.014;-7.874;2022-09-09T11:11:04;99174.16;;;27.88;54.15
60705;BME280;46545;38.014;-7.874;2022-09-09T11:15:41;99163.59;;;28.22;52.09
60705;BME280;46545;38.014;-7.874;2022-09-09T11:17:47;99163.69;;;27.94;53.64
60705;BME280;46545;38.014;-7.874;2022-09-09T11:19:49;99166.69;;;28.05;53.23
60705;BME280;46545;38.014;-7.874;2022-09-09T11:21:50;99170.19;;;28.02;52.78
60705;BME280;46545;38.014;-7.874;2022-09-09T11:23:53;99170.00;;;28.10;52.42
60705;BME280;46545;38.014;-7.874;2022-09-09T11:25:56;99169.75;;;28.15;52.62
60705;BME280;46545;38.014;-7.874;2022-09-09T11:28:11;99158.16;;;28.26;51.74
60705;BME280;46545;38.014;-7.874;2022-09-09T11:32:26;99160.00;;;28.37;51.48
60705;BME280;46545;38.014;-7.874;2022-09-09T11:38:44;99155.22;;;28.34;52.24
60705;BME280;46545;38.014;-7.874;2022-09-09T11:40:47;99146.59;;;28.52;51.83
60705;BME280;46545;38.014;-7.874;2022-09-09T11:42:48;99144.31;;;28.73;51.21
60705;BME280;46545;38.014;-7.874;2022-09-09T11:44:52;99143.03;;;28.87;49.99
60705;BME280;46545;38.014;-7.874;2022-09-09T11:46:57;99140.69;;;28.89;50.75
60705;BME280;46545;38.014;-7.874;2022-09-09T11:48:58;99141.00;;;29.03;49.88
60705;BME280;46545;38.014;-7.874;2022-09-09T11:51:02;99130.94;;;29.11;49.38
60705;BME280;46545;38.014;-7.874;2022-09-09T11:55:48;99126.41;;;29.42;49.09
60705;BME280;46545;38.014;-7.874;2022-09-09T11:57:37;99127.66;;;29.67;48.09
60705;BME280;46545;38.014;-7.874;2022-09-09T11:59:37;99133.84;;;29.61;47.19
60705;BME280;46545;38.014;-7.874;2022-09-09T12:01:39;99130.06;;;29.49;47.49